Time;durP1;ratioP1;P1;durP2;ratioP2;P2;SDS_P1;SDS_P2;PMS_P1;PMS_P2;Temp;Humidity;BMP_temperature;BMP_pressure;BME280_temperature;BME280_humidity;BME280_pressure;Samples;Min_cycle;Max_cycle;Signal;HPM_P1;HPM_P2
2023/01/02 00:07:59;;;;;;;7.63;3.42;;;5.80;99.90;;;;;;20083219;29;20079;-54
2023/01/02 00:18:01;;;;;;;8.82;3.95;;;5.40;99.90;;;;;;20015601;29;20393;-59
2023/01/02 00:28:03;;;;;;;6.22;3.88;;;5.60;99.90;;;;;;20097454;29;20046;-59
2023/01/02 00:38:05;;;;;;;10.75;5.22;;;5.60;99.90;;;;;;20102176;29;20057;-59
2023/01/02 00:48:07;;;;;;;562.70;22.65;;;5.40;99.90;;;;;;20122280;29;20065;-52
2023/01/02 00:58:08;;;;;;;709.22;25.50;;;5.30;99.90;;;;;;20104602;29;20102;-54
2023/01/02 01:08:10;;;;;;;86.15;9.27;;;5.20;99.90;;;;;;20110402;29;20045;-59
2023/01/02 01:18:11;;;;;;;202.85;13.90;;;4.80;99.90;;;;;;20043769;29;20041;-50
2023/01/02 01:28:13;;;;;;;203.77;14.32;;;4.90;99.90;;;;;;20109850;29;20376;-50
2023/01/02 01:38:14;;;;;;;43.20;11.13;;;5.00;99.90;;;;;;20119458;29;20348;-59
2023/01/02 01:48:16;;;;;;;184.15;12.73;;;5.20;99.90;;;;;;20042438;29;20110;-52
2023/01/02 01:58:22;;;;;;;84.85;10.88;;;4.90;99.90;;;;;;20091762;29;20118;-59
2023/01/02 02:08:24;;;;;;;75.55;8.00;;;4.80;99.90;;;;;;20104399;29;20038;-53
2023/01/02 02:18:44;;;;;;;58.10;9.48;;;4.80;99.90;;;;;;20022694;29;20041;-59
2023/01/02 02:28:52;;;;;;;99.97;9.45;;;4.70;99.90;;;;;;20109656;29;20101;-59
2023/01/02 02:39:04;;;;;;;29.27;7.97;;;4.60;99.90;;;;;;20114280;29;20404;-47
2023/01/02 02:49:24;;;;;;;17.90;7.20;;;4.40;99.90;;;;;;20114302;29;20041;-59
2023/01/02 02:59:27;;;;;;;36.37;7.30;;;4.00;99.90;;;;;;20112327;29;20045;-59
2023/01/02 03:09:32;;;;;;;81.05;7.68;;;3.80;99.90;;;;;;20091938;29;20038;-59
2023/01/02 03:19:40;;;;;;;12.25;5.47;;;3.90;99.90;;;;;;20036660;29;20038;-58
2023/01/02 03:30:28;;;;;;;64.93;9.65;;;3.80;99.90;;;;;;20094576;29;20408;-59
2023/01/02 03:40:43;;;;;;;11.63;5.00;;;3.90;99.90;;;;;;20093400;29;20045;-51
2023/01/02 03:50:52;;;;;;;128.48;7.20;;;3.80;99.90;;;;;;20043109;29;20054;-59
2023/01/02 04:01:03;;;;;;;154.63;8.60;;;3.50;99.90;;;;;;20092782;29;20074;-53
2023/01/02 04:11:06;;;;;;;95.90;7.05;;;3.80;99.90;;;;;;20075342;29;20122;-59
2023/01/02 04:21:14;;;;;;;96.82;7.72;;;3.80;99.90;;;;;;20044608;29;20464;-59
2023/01/02 04:31:41;;;;;;;86.68;6.95;;;3.90;99.90;;;;;;20107925;29;20053;-59
2023/01/02 04:41:43;;;;;;;159.23;10.82;;;4.00;99.90;;;;;;20106224;29;20121;-59
2023/01/02 04:51:44;;;;;;;111.40;7.75;;;4.20;99.90;;;;;;20107922;29;20045;-59
2023/01/02 05:01:46;;;;;;;128.73;8.65;;;4.00;99.90;;;;;;20106951;29;20350;-59
2023/01/02 05:11:48;;;;;;;45.83;5.55;;;4.00;99.90;;;;;;20068446;29;20050;-52
2023/01/02 05:32:09;;;;;;;486.53;16.13;;;3.90;99.90;;;;;;20102736;29;20470;-53
2023/01/02 05:42:11;;;;;;;27.90;3.25;;;3.90;99.90;;;;;;20089931;29;20559;-50
2023/01/02 05:52:13;;;;;;;387.10;12.95;;;3.90;99.90;;;;;;20062398;29;20599;-46
2023/01/02 06:02:14;;;;;;;33.22;3.63;;;3.90;99.90;;;;;;20117241;29;20041;-59
2023/01/02 06:12:16;;;;;;;16.67;5.00;;;3.70;99.90;;;;;;20074686;29;20472;-58
2023/01/02 06:22:18;;;;;;;115.35;6.25;;;3.40;99.90;;;;;;20044427;29;20074;-60
2023/01/02 06:32:19;;;;;;;159.82;7.65;;;3.40;99.90;;;;;;20114379;29;20045;-59
2023/01/02 06:42:21;;;;;;;49.83;5.05;;;3.60;99.90;;;;;;20096432;29;20140;-52
2023/01/02 06:52:22;;;;;;;481.00;17.25;;;3.50;99.90;;;;;;20112933;29;20189;-52
2023/01/02 07:02:24;;;;;;;106.32;8.05;;;3.60;99.90;;;;;;20112813;29;20046;-59
2023/01/02 07:12:26;;;;;;;18.65;5.65;;;3.70;99.90;;;;;;20038141;29;20046;-50
2023/01/02 07:22:27;;;;;;;200.32;10.20;;;3.70;99.90;;;;;;20041210;29;20038;-53
2023/01/02 07:32:29;;;;;;;27.55;5.30;;;3.90;99.90;;;;;;20110675;29;20041;-59
2023/01/02 07:42:30;;;;;;;80.22;5.60;;;4.00;99.90;;;;;;20061564;29;20046;-48
2023/01/02 07:52:32;;;;;;;11.98;5.30;;;4.30;99.90;;;;;;20040594;29;20050;-54
2023/01/02 08:02:34;;;;;;;9.95;5.50;;;4.40;99.90;;;;;;20110483;29;20053;-53
2023/01/02 08:12:35;;;;;;;359.42;16.33;;;5.10;99.90;;;;;;20064546;29;20050;-49
2023/01/02 08:22:38;;;;;;;188.77;11.48;;;5.30;99.90;;;;;;20056260;29;20046;-52
2023/01/02 08:32:41;;;;;;;519.40;19.10;;;5.40;99.90;;;;;;20107502;29;20487;-59
2023/01/02 08:42:43;;;;;;;145.60;10.50;;;5.60;99.90;;;;;;20107397;29;20403;-59
2023/01/02 08:52:45;;;;;;;77.72;9.02;;;5.80;99.90;;;;;;20108634;29;20046;-55
2023/01/02 09:02:46;;;;;;;23.30;7.78;;;6.00;99.90;;;;;;20097226;29;20038;-54
2023/01/02 09:12:48;;;;;;;35.00;8.13;;;5.90;99.90;;;;;;20065865;29;20457;-60
2023/01/02 09:22:50;;;;;;;14.30;7.72;;;5.80;99.90;;;;;;20094476;29;20046;-53
2023/01/02 09:32:53;;;;;;;14.73;7.30;;;6.00;99.90;;;;;;20043379;29;20132;-57
2023/01/02 09:42:54;;;;;;;13.43;7.90;;;6.30;99.90;;;;;;20106534;29;20045;-59
2023/01/02 09:52:59;;;;;;;11.85;6.60;;;6.50;99.90;;;;;;20101864;29;20512;-53
2023/01/02 10:03:11;;;;;;;8.02;5.30;;;6.70;99.90;;;;;;20065465;29;20396;-55
2023/01/02 10:13:40;;;;;;;10.15;4.15;;;7.10;99.90;;;;;;20040787;29;20171;-51
2023/01/02 10:23:48;;;;;;;7.93;3.88;;;7.40;99.90;;;;;;20055581;29;20395;-60
2023/01/02 10:33:58;;;;;;;6.13;3.35;;;7.80;99.90;;;;;;20097727;29;20105;-53
2023/01/02 10:44:09;;;;;;;8.15;4.38;;;8.30;99.90;;;;;;20042893;29;20446;-60
2023/01/02 10:54:11;;;;;;;9.52;5.20;;;8.60;99.90;;;;;;20041388;29;20372;-59
2023/01/02 11:04:20;;;;;;;5.72;3.72;;;8.60;99.90;;;;;;20112593;29;20504;-60
2023/01/02 11:14:33;;;;;;;8.10;4.10;;;9.20;99.90;;;;;;20047169;29;20115;-60
2023/01/02 11:25:00;;;;;;;12.45;7.68;;;9.80;99.90;;;;;;20069455;29;20090;-60
2023/01/02 11:35:01;;;;;;;7.93;4.75;;;10.30;99.90;;;;;;20021045;29;20226;-60
2023/01/02 11:45:10;;;;;;;9.02;6.03;;;10.70;99.90;;;;;;20016078;29;20110;-61
2023/01/02 11:55:43;;;;;;;17.02;10.98;;;10.90;99.90;;;;;;20014235;29;20061;-57
2023/01/02 12:06:16;;;;;;;14.50;9.70;;;10.60;99.90;;;;;;20024007;29;20088;-55
2023/01/02 12:16:41;;;;;;;18.52;12.50;;;10.10;99.90;;;;;;20018439;29;20041;-56
2023/01/02 12:26:48;;;;;;;14.70;9.63;;;9.70;99.90;;;;;;20086296;29;20045;-57
2023/01/02 12:37:11;;;;;;;14.85;9.82;;;9.40;99.90;;;;;;20118455;29;20083;-52
2023/01/02 12:47:28;;;;;;;24.35;12.70;;;9.40;99.90;;;;;;20106108;29;20054;-60
2023/01/02 12:58:11;;;;;;;11.98;8.02;;;9.50;99.90;;;;;;20122863;29;20525;-60
2023/01/02 13:08:18;;;;;;;10.63;7.10;;;9.70;99.90;;;;;;20083192;29;20392;-59
2023/01/02 13:18:36;;;;;;;12.43;7.15;;;10.30;99.90;;;;;;19967698;29;20453;-56
2023/01/02 13:29:18;;;;;;;11.82;5.93;;;10.00;99.90;;;;;;20090461;29;20464;-57
2023/01/02 13:39:43;;;;;;;14.13;7.65;;;9.50;99.90;;;;;;20115951;29;20070;-53
2023/01/02 13:50:03;;;;;;;9.85;5.47;;;8.90;99.90;;;;;;20070002;29;20391;-56
2023/01/02 14:00:34;;;;;;;8.87;5.33;;;8.30;99.90;;;;;;20100843;29;20132;-54
2023/01/02 14:10:40;;;;;;;10.60;3.47;;;8.20;99.90;;;;;;20087549;29;20461;-54
2023/01/02 14:20:43;;;;;;;6.55;3.22;;;8.20;99.90;;;;;;20033731;29;20114;-55
2023/01/02 14:30:45;;;;;;;6.75;3.65;;;8.00;99.90;;;;;;20098141;29;20407;-55
2023/01/02 14:40:47;;;;;;;4.88;2.75;;;7.60;99.90;;;;;;20031254;29;20057;-54
2023/01/02 14:50:49;;;;;;;5.20;3.30;;;7.30;99.90;;;;;;20014466;29;20049;-60
2023/01/02 15:00:54;;;;;;;6.20;1.98;;;7.20;99.90;;;;;;19995838;29;20054;-52
2023/01/02 15:13:02;;;;;;;3.45;2.08;;;7.10;99.90;;;;;;20012466;29;20041;-54
2023/01/02 15:21:27;;;;;;;4.45;2.25;;;6.90;99.90;;;;;;19972428;29;20075;-55
2023/01/02 15:31:29;;;;;;;7.60;3.25;;;6.70;99.90;;;;;;20015892;29;20118;-59
2023/01/02 15:41:31;;;;;;;6.60;3.25;;;6.60;99.90;;;;;;20034261;29;20050;-59
2023/01/02 15:51:33;;;;;;;7.13;3.40;;;6.40;99.90;;;;;;19989227;29;20049;-59
2023/01/02 16:01:43;;;;;;;6.40;3.35;;;6.10;99.90;;;;;;20038784;29;20091;-57
2023/01/02 16:11:49;;;;;;;13.37;4.33;;;5.80;99.90;;;;;;20018956;29;20114;-59
2023/01/02 16:22:07;;;;;;;5.47;3.15;;;5.60;99.90;;;;;;20034089;29;20037;-55
2023/01/02 16:32:24;;;;;;;9.50;3.30;;;5.80;99.90;;;;;;20099435;29;20075;-52
2023/01/02 16:42:39;;;;;;;9.30;4.07;;;5.60;99.90;;;;;;20075451;29;20061;-53
2023/01/02 16:52:41;;;;;;;10.20;4.53;;;5.60;99.90;;;;;;20094514;29;20504;-59
2023/01/02 17:02:45;;;;;;;7.75;4.18;;;5.60;99.90;;;;;;20077976;29;20041;-59
2023/01/02 17:12:46;;;;;;;10.10;4.60;;;5.80;99.90;;;;;;20096214;29;20057;-54
2023/01/02 17:22:48;;;;;;;7.07;3.50;;;5.70;99.90;;;;;;20097549;29;20511;-55
2023/01/02 17:32:50;;;;;;;8.60;4.40;;;6.10;99.90;;;;;;20113252;29;20565;-60
2023/01/02 17:42:52;;;;;;;10.93;4.20;;;6.00;99.90;;;;;;20095737;29;20507;-60
2023/01/02 17:52:54;;;;;;;9.05;4.50;;;5.80;99.90;;;;;;20095592;29;20049;-59
2023/01/02 18:02:55;;;;;;;8.80;3.92;;;5.70;99.90;;;;;;20108264;29;20464;-60
2023/01/02 18:12:57;;;;;;;6.90;3.22;;;5.40;99.90;;;;;;20105209;29;20103;-59
2023/01/02 18:22:59;;;;;;;5.90;3.28;;;5.30;99.90;;;;;;20109852;29;20122;-60
2023/01/02 18:33:13;;;;;;;7.45;3.70;;;5.40;99.90;;;;;;20108637;29;20056;-60
2023/01/02 18:43:52;;;;;;;6.00;3.17;;;5.60;99.90;;;;;;20102772;29;20111;-52
2023/01/02 18:53:57;;;;;;;7.43;3.90;;;5.60;99.90;;;;;;19796817;30;20083;-53
2023/01/02 19:04:18;;;;;;;9.38;4.40;;;5.30;99.90;;;;;;19796394;30;20283;-55
2023/01/02 19:14:28;;;;;;;12.77;5.05;;;5.10;99.90;;;;;;19789559;30;20066;-55
2023/01/02 19:24:35;;;;;;;12.63;6.10;;;4.80;99.90;;;;;;19910317;29;20049;-50
2023/01/02 19:34:51;;;;;;;17.15;7.40;;;4.70;99.90;;;;;;20104823;29;20053;-60
2023/01/02 19:44:57;;;;;;;9.73;5.30;;;5.00;99.90;;;;;;20099775;29;20476;-55
2023/01/02 19:55:00;;;;;;;6.53;3.88;;;5.00;99.90;;;;;;20097858;29;20488;-56
2023/01/02 20:05:02;;;;;;;11.80;6.50;;;5.50;99.90;;;;;;20103113;29;20089;-60
2023/01/02 20:15:10;;;;;;;8.27;5.40;;;5.50;99.90;;;;;;20079337;29;20424;-59
2023/01/02 20:25:14;;;;;;;9.80;4.70;;;5.40;99.90;;;;;;20102057;29;20050;-59
2023/01/02 20:35:16;;;;;;;6.68;4.05;;;5.50;99.90;;;;;;20102029;29;20041;-51
2023/01/02 20:45:18;;;;;;;7.40;4.60;;;5.60;99.90;;;;;;20078427;29;20110;-59
2023/01/02 20:55:20;;;;;;;7.57;3.80;;;5.50;99.90;;;;;;20112497;29;20041;-60
2023/01/02 21:05:23;;;;;;;8.43;3.47;;;5.30;99.90;;;;;;20098981;29;20205;-52
2023/01/02 21:25:48;;;;;;;17.48;7.93;;;4.80;99.90;;;;;;20087280;29;20053;-59
2023/01/02 21:35:51;;;;;;;13.23;6.18;;;4.80;99.90;;;;;;20061087;29;20045;-59
2023/01/02 21:56:00;;;;;;;9.07;4.47;;;4.40;99.90;;;;;;21102071;27;20318;-60
2023/01/02 22:06:02;;;;;;;6.43;4.53;;;4.80;99.90;;;;;;21090247;28;20480;-60
2023/01/02 22:16:04;;;;;;;7.82;4.38;;;4.70;99.90;;;;;;21107169;28;20024;-59
2023/01/02 22:26:05;;;;;;;9.93;5.65;;;5.00;99.90;;;;;;21105683;28;20481;-56
2023/01/02 22:36:07;;;;;;;15.38;7.22;;;5.00;99.90;;;;;;21129860;28;20020;-59
2023/01/02 22:46:24;;;;;;;20.88;10.82;;;5.00;99.90;;;;;;21117982;28;20384;-60
2023/01/02 22:56:25;;;;;;;19.00;9.63;;;4.80;99.90;;;;;;21132687;28;20035;-59
2023/01/02 23:06:27;;;;;;;12.55;7.60;;;4.80;99.90;;;;;;21059865;28;20040;-54
2023/01/02 23:26:52;;;;;;;75.05;15.60;;;4.90;99.90;;;;;;21073507;28;20409;-60
2023/01/02 23:36:56;;;;;;;986.70;40.70;;;5.20;99.90;;;;;;21071778;28;20043;-59
2023/01/02 23:46:58;;;;;;;678.72;28.42;;;5.30;99.90;;;;;;21071039;28;20036;-49
2023/01/02 23:57:00;;;;;;;440.45;20.48;;;5.10;99.90;;;;;;21070725;28;20032;-60
